sensor_id;sensor_type;location;lat;lon;timestamp;pressure;altitude;pressure_sealevel;temperature;humidity
64551;BME280;50945;44.472;-123.352;2023-04-20T00:00:50;101269.78;;;9.69;69.32
64551;BME280;50945;44.472;-123.352;2023-04-20T00:03:16;101272.81;;;9.66;68.85
64551;BME280;50945;44.472;-123.352;2023-04-20T00:05:46;101280.44;;;9.62;69.06
64551;BME280;50945;44.472;-123.352;2023-04-20T00:08:15;101277.56;;;9.64;69.12
64551;BME280;50945;44.472;-123.352;2023-04-20T00:10:43;101282.25;;;9.71;69.00
64551;BME280;50945;44.472;-123.352;2023-04-20T00:13:09;101281.38;;;9.71;68.84
64551;BME280;50945;44.472;-123.352;2023-04-20T00:15:35;101284.50;;;9.76;68.40
64551;BME280;50945;44.472;-123.352;2023-04-20T00:18:02;101280.38;;;9.72;68.44
64551;BME280;50945;44.472;-123.352;2023-04-20T00:20:28;101283.13;;;9.72;65.89
64551;BME280;50945;44.472;-123.352;2023-04-20T00:22:54;101285.22;;;9.60;66.79
64551;BME280;50945;44.472;-123.352;2023-04-20T00:25:20;101294.88;;;9.55;68.09
64551;BME280;50945;44.472;-123.352;2023-04-20T00:27:46;101292.00;;;9.38;68.03
64551;BME280;50945;44.472;-123.352;2023-04-20T00:30:13;101295.81;;;9.45;68.77
64551;BME280;50945;44.472;-123.352;2023-04-20T00:32:39;101294.63;;;9.48;68.89
64551;BME280;50945;44.472;-123.352;2023-04-20T00:35:06;101298.56;;;9.45;68.82
64551;BME280;50945;44.472;-123.352;2023-04-20T00:37:32;101307.03;;;9.42;69.46
64551;BME280;50945;44.472;-123.352;2023-04-20T00:39:58;101307.34;;;9.39;69.84
64551;BME280;50945;44.472;-123.352;2023-04-20T00:42:24;101307.19;;;9.41;69.30
64551;BME280;50945;44.472;-123.352;2023-04-20T00:44:50;101311.50;;;9.43;69.70
64551;BME280;50945;44.472;-123.352;2023-04-20T00:47:16;101301.28;;;9.45;69.57
64551;BME280;50945;44.472;-123.352;2023-04-20T00:49:43;101303.38;;;9.51;70.04
64551;BME280;50945;44.472;-123.352;2023-04-20T00:52:09;101300.19;;;9.56;69.84
64551;BME280;50945;44.472;-123.352;2023-04-20T00:54:37;101309.38;;;9.55;69.59
64551;BME280;50945;44.472;-123.352;2023-04-20T00:57:04;101301.69;;;9.50;69.77
64551;BME280;50945;44.472;-123.352;2023-04-20T00:59:30;101311.72;;;9.50;69.85
64551;BME280;50945;44.472;-123.352;2023-04-20T01:01:56;101314.38;;;9.42;69.54
64551;BME280;50945;44.472;-123.352;2023-04-20T01:04:24;101317.16;;;9.32;67.72
64551;BME280;50945;44.472;-123.352;2023-04-20T01:06:51;101315.56;;;9.11;68.16
64551;BME280;50945;44.472;-123.352;2023-04-20T01:09:17;101312.75;;;8.93;68.49
64551;BME280;50945;44.472;-123.352;2023-04-20T01:11:43;101317.41;;;8.83;67.60
64551;BME280;50945;44.472;-123.352;2023-04-20T01:14:11;101326.00;;;8.88;68.55
64551;BME280;50945;44.472;-123.352;2023-04-20T01:16:37;101321.75;;;8.76;63.21
64551;BME280;50945;44.472;-123.352;2023-04-20T01:19:04;101322.94;;;8.64;63.89
64551;BME280;50945;44.472;-123.352;2023-04-20T01:21:30;101332.72;;;8.56;66.40
64551;BME280;50945;44.472;-123.352;2023-04-20T01:23:57;101337.47;;;8.54;65.89
64551;BME280;50945;44.472;-123.352;2023-04-20T01:26:23;101340.75;;;8.58;65.62
64551;BME280;50945;44.472;-123.352;2023-04-20T01:28:50;101332.72;;;8.56;65.22
64551;BME280;50945;44.472;-123.352;2023-04-20T01:31:18;101344.63;;;8.55;65.25
64551;BME280;50945;44.472;-123.352;2023-04-20T01:33:45;101344.19;;;8.50;66.13
64551;BME280;50945;44.472;-123.352;2023-04-20T01:36:12;101350.22;;;8.34;65.72
64551;BME280;50945;44.472;-123.352;2023-04-20T01:38:38;101351.94;;;8.26;66.33
64551;BME280;50945;44.472;-123.352;2023-04-20T01:41:07;101354.81;;;8.24;66.52
64551;BME280;50945;44.472;-123.352;2023-04-20T01:43:35;101347.66;;;8.13;64.49
64551;BME280;50945;44.472;-123.352;2023-04-20T01:46:01;101356.84;;;8.12;67.43
64551;BME280;50945;44.472;-123.352;2023-04-20T01:48:27;101356.28;;;8.09;67.21
64551;BME280;50945;44.472;-123.352;2023-04-20T01:50:54;101359.16;;;8.07;67.53
64551;BME280;50945;44.472;-123.352;2023-04-20T01:53:20;101366.47;;;8.07;67.22
64551;BME280;50945;44.472;-123.352;2023-04-20T01:55:47;101366.75;;;8.04;66.64
64551;BME280;50945;44.472;-123.352;2023-04-20T01:58:13;101369.03;;;7.98;64.80
64551;BME280;50945;44.472;-123.352;2023-04-20T02:00:39;101370.34;;;7.94;66.05
64551;BME280;50945;44.472;-123.352;2023-04-20T02:03:05;101367.03;;;7.91;66.67
64551;BME280;50945;44.472;-123.352;2023-04-20T02:05:31;101372.19;;;7.84;67.29
64551;BME280;50945;44.472;-123.352;2023-04-20T02:07:58;101378.03;;;7.79;65.72
64551;BME280;50945;44.472;-123.352;2023-04-20T02:10:24;101376.63;;;7.75;67.97
64551;BME280;50945;44.472;-123.352;2023-04-20T02:12:50;101369.88;;;7.70;68.43
64551;BME280;50945;44.472;-123.352;2023-04-20T02:15:16;101378.19;;;7.68;68.83
64551;BME280;50945;44.472;-123.352;2023-04-20T02:17:43;101378.06;;;7.70;69.26
64551;BME280;50945;44.472;-123.352;2023-04-20T02:20:10;101373.59;;;7.69;69.65
64551;BME280;50945;44.472;-123.352;2023-04-20T02:22:37;101394.47;;;7.58;70.25
64551;BME280;50945;44.472;-123.352;2023-04-20T02:25:05;101384.88;;;7.45;70.74
64551;BME280;50945;44.472;-123.352;2023-04-20T02:27:32;101395.84;;;7.33;71.31
64551;BME280;50945;44.472;-123.352;2023-04-20T02:29:58;101388.41;;;7.26;71.95
64551;BME280;50945;44.472;-123.352;2023-04-20T02:32:25;101395.25;;;7.20;72.25
64551;BME280;50945;44.472;-123.352;2023-04-20T02:34:51;101397.66;;;7.13;72.17
64551;BME280;50945;44.472;-123.352;2023-04-20T02:37:17;101396.47;;;7.06;72.51
64551;BME280;50945;44.472;-123.352;2023-04-20T02:39:44;101401.72;;;6.98;72.71
64551;BME280;50945;44.472;-123.352;2023-04-20T02:42:10;101399.09;;;6.87;72.54
64551;BME280;50945;44.472;-123.352;2023-04-20T02:44:38;101401.03;;;6.75;72.63
64551;BME280;50945;44.472;-123.352;2023-04-20T02:47:07;101408.28;;;6.64;72.84
64551;BME280;50945;44.472;-123.352;2023-04-20T02:49:35;101413.38;;;6.58;73.55
64551;BME280;50945;44.472;-123.352;2023-04-20T02:52:01;101412.91;;;6.53;73.92
64551;BME280;50945;44.472;-123.352;2023-04-20T02:54:27;101416.91;;;6.49;73.13
64551;BME280;50945;44.472;-123.352;2023-04-20T02:56:56;101420.84;;;6.44;73.90
64551;BME280;50945;44.472;-123.352;2023-04-20T02:59:23;101417.28;;;6.44;74.03
64551;BME280;50945;44.472;-123.352;2023-04-20T03:01:51;101427.91;;;6.47;73.89
64551;BME280;50945;44.472;-123.352;2023-04-20T03:04:17;101434.19;;;6.47;74.00
64551;BME280;50945;44.472;-123.352;2023-04-20T03:06:43;101435.03;;;6.48;74.60
64551;BME280;50945;44.472;-123.352;2023-04-20T03:09:10;101442.09;;;6.51;75.30
64551;BME280;50945;44.472;-123.352;2023-04-20T03:11:40;101443.78;;;6.52;75.66
64551;BME280;50945;44.472;-123.352;2023-04-20T03:14:07;101446.38;;;6.53;76.17
64551;BME280;50945;44.472;-123.352;2023-04-20T03:16:33;101443.66;;;6.53;76.02
64551;BME280;50945;44.472;-123.352;2023-04-20T03:19:00;101440.94;;;6.53;76.12
64551;BME280;50945;44.472;-123.352;2023-04-20T03:21:26;101448.25;;;6.53;75.76
64551;BME280;50945;44.472;-123.352;2023-04-20T03:23:52;101448.50;;;6.50;76.06
64551;BME280;50945;44.472;-123.352;2023-04-20T03:26:21;101458.75;;;6.46;75.98
64551;BME280;50945;44.472;-123.352;2023-04-20T03:28:49;101457.19;;;6.43;76.12
64551;BME280;50945;44.472;-123.352;2023-04-20T03:31:40;101462.03;;;6.40;76.21
64551;BME280;50945;44.472;-123.352;2023-04-20T03:34:07;101466.72;;;6.38;76.38
64551;BME280;50945;44.472;-123.352;2023-04-20T03:36:35;101464.13;;;6.36;76.45
64551;BME280;50945;44.472;-123.352;2023-04-20T03:39:01;101471.41;;;6.36;76.45
64551;BME280;50945;44.472;-123.352;2023-04-20T03:41:28;101472.78;;;6.30;76.68
64551;BME280;50945;44.472;-123.352;2023-04-20T03:43:56;101471.56;;;6.23;76.85
64551;BME280;50945;44.472;-123.352;2023-04-20T03:46:22;101477.53;;;6.17;76.58
64551;BME280;50945;44.472;-123.352;2023-04-20T03:48:49;101486.91;;;6.13;76.92
64551;BME280;50945;44.472;-123.352;2023-04-20T03:51:15;101488.91;;;6.11;77.12
64551;BME280;50945;44.472;-123.352;2023-04-20T03:53:43;101489.41;;;6.04;77.28
64551;BME280;50945;44.472;-123.352;2023-04-20T03:56:09;101492.63;;;5.98;77.30
64551;BME280;50945;44.472;-123.352;2023-04-20T03:58:35;101496.56;;;5.94;77.41
64551;BME280;50945;44.472;-123.352;2023-04-20T04:01:05;101504.22;;;5.89;77.86
64551;BME280;50945;44.472;-123.352;2023-04-20T04:03:36;101504.59;;;5.84;77.88
64551;BME280;50945;44.472;-123.352;2023-04-20T04:06:02;101506.84;;;5.79;77.94
64551;BME280;50945;44.472;-123.352;2023-04-20T04:08:29;101512.50;;;5.76;78.06
64551;BME280;50945;44.472;-123.352;2023-04-20T04:10:56;101518.19;;;5.73;78.60
64551;BME280;50945;44.472;-123.352;2023-04-20T04:13:23;101521.13;;;5.70;78.47
64551;BME280;50945;44.472;-123.352;2023-04-20T04:15:49;101523.13;;;5.68;78.58
64551;BME280;50945;44.472;-123.352;2023-04-20T04:18:15;101526.22;;;5.63;78.41
64551;BME280;50945;44.472;-123.352;2023-04-20T04:20:41;101532.75;;;5.61;78.76
64551;BME280;50945;44.472;-123.352;2023-04-20T04:23:09;101545.06;;;5.53;78.77
64551;BME280;50945;44.472;-123.352;2023-04-20T04:25:40;101535.19;;;5.41;78.63
64551;BME280;50945;44.472;-123.352;2023-04-20T04:28:10;101532.63;;;5.28;79.52
64551;BME280;50945;44.472;-123.352;2023-04-20T04:30:36;101537.03;;;5.18;79.99
64551;BME280;50945;44.472;-123.352;2023-04-20T04:33:05;101544.78;;;5.11;80.25
64551;BME280;50945;44.472;-123.352;2023-04-20T04:35:31;101544.41;;;5.05;82.01
64551;BME280;50945;44.472;-123.352;2023-04-20T04:37:59;101549.06;;;5.03;80.18
64551;BME280;50945;44.472;-123.352;2023-04-20T04:40:25;101545.72;;;4.99;80.68
64551;BME280;50945;44.472;-123.352;2023-04-20T04:42:54;101546.84;;;4.97;80.39
64551;BME280;50945;44.472;-123.352;2023-04-20T04:45:20;101555.22;;;4.93;80.67
64551;BME280;50945;44.472;-123.352;2023-04-20T04:47:49;101559.16;;;4.89;81.07
64551;BME280;50945;44.472;-123.352;2023-04-20T04:50:18;101563.94;;;4.86;81.25
64551;BME280;50945;44.472;-123.352;2023-04-20T04:52:45;101566.03;;;4.82;81.47
64551;BME280;50945;44.472;-123.352;2023-04-20T04:55:11;101561.69;;;4.80;84.07
64551;BME280;50945;44.472;-123.352;2023-04-20T04:57:37;101560.81;;;4.79;82.50
64551;BME280;50945;44.472;-123.352;2023-04-20T05:00:05;101574.38;;;4.79;81.61
64551;BME280;50945;44.472;-123.352;2023-04-20T05:02:36;101576.13;;;4.80;81.77
64551;BME280;50945;44.472;-123.352;2023-04-20T05:05:02;101574.38;;;4.79;82.10
64551;BME280;50945;44.472;-123.352;2023-04-20T05:07:30;101573.41;;;4.80;81.84
64551;BME280;50945;44.472;-123.352;2023-04-20T05:09:56;101573.41;;;4.80;81.67
64551;BME280;50945;44.472;-123.352;2023-04-20T05:12:22;101581.53;;;4.80;81.18
64551;BME280;50945;44.472;-123.352;2023-04-20T05:14:51;101579.78;;;4.79;81.76
64551;BME280;50945;44.472;-123.352;2023-04-20T05:17:17;101572.66;;;4.78;82.54
64551;BME280;50945;44.472;-123.352;2023-04-20T05:19:43;101580.78;;;4.78;82.58
64551;BME280;50945;44.472;-123.352;2023-04-20T05:22:10;101583.63;;;4.76;82.67
64551;BME280;50945;44.472;-123.352;2023-04-20T05:24:38;101581.88;;;4.75;82.45
64551;BME280;50945;44.472;-123.352;2023-04-20T05:27:05;101579.16;;;4.75;82.64
64551;BME280;50945;44.472;-123.352;2023-04-20T05:29:31;101581.88;;;4.75;82.28
64551;BME280;50945;44.472;-123.352;2023-04-20T05:31:57;101580.28;;;4.73;82.19
64551;BME280;50945;44.472;-123.352;2023-04-20T05:34:23;101578.41;;;4.73;82.12
64551;BME280;50945;44.472;-123.352;2023-04-20T05:36:51;101578.66;;;4.70;82.52
64551;BME280;50945;44.472;-123.352;2023-04-20T05:39:17;101575.19;;;4.68;82.34
64551;BME280;50945;44.472;-123.352;2023-04-20T05:41:46;101581.72;;;4.66;82.59
64551;BME280;50945;44.472;-123.352;2023-04-20T05:44:12;101573.81;;;4.63;82.37
64551;BME280;50945;44.472;-123.352;2023-04-20T05:46:38;101573.09;;;4.61;82.96
64551;BME280;50945;44.472;-123.352;2023-04-20T05:49:04;101579.84;;;4.55;83.05
64551;BME280;50945;44.472;-123.352;2023-04-20T05:51:31;101581.75;;;4.53;83.39
64551;BME280;50945;44.472;-123.352;2023-04-20T05:53:59;101574.97;;;4.47;83.51
64551;BME280;50945;44.472;-123.352;2023-04-20T05:56:26;101571.88;;;4.41;83.57
64551;BME280;50945;44.472;-123.352;2023-04-20T05:58:53;101575.03;;;4.34;83.88
64551;BME280;50945;44.472;-123.352;2023-04-20T06:01:19;101580.78;;;4.30;83.69
64551;BME280;50945;44.472;-123.352;2023-04-20T06:03:46;101580.91;;;4.28;83.87
64551;BME280;50945;44.472;-123.352;2023-04-20T06:06:14;101575.63;;;4.27;83.80
64551;BME280;50945;44.472;-123.352;2023-04-20T06:08:40;101579.28;;;4.26;83.76
64551;BME280;50945;44.472;-123.352;2023-04-20T06:11:06;101584.69;;;4.26;83.54
64551;BME280;50945;44.472;-123.352;2023-04-20T06:13:32;101584.81;;;4.24;83.69
64551;BME280;50945;44.472;-123.352;2023-04-20T06:15:58;101586.88;;;4.21;83.86
64551;BME280;50945;44.472;-123.352;2023-04-20T06:18:25;101587.47;;;4.13;84.25
64551;BME280;50945;44.472;-123.352;2023-04-20T06:20:51;101587.78;;;4.08;84.33
64551;BME280;50945;44.472;-123.352;2023-04-20T06:23:17;101594.41;;;4.04;84.48
64551;BME280;50945;44.472;-123.352;2023-04-20T06:25:43;101596.38;;;4.02;84.65
64551;BME280;50945;44.472;-123.352;2023-04-20T06:28:09;101608.16;;;4.01;84.38
64551;BME280;50945;44.472;-123.352;2023-04-20T06:30:35;101605.69;;;3.98;84.62
64551;BME280;50945;44.472;-123.352;2023-04-20T06:33:02;101609.47;;;3.95;84.76
64551;BME280;50945;44.472;-123.352;2023-04-20T06:35:28;101604.28;;;3.92;84.93
64551;BME280;50945;44.472;-123.352;2023-04-20T06:37:56;101615.44;;;3.88;84.94
64551;BME280;50945;44.472;-123.352;2023-04-20T06:40:26;101617.50;;;3.84;84.89
64551;BME280;50945;44.472;-123.352;2023-04-20T06:42:52;101617.72;;;3.81;84.36
64551;BME280;50945;44.472;-123.352;2023-04-20T06:45:20;101619.78;;;3.77;84.53
64551;BME280;50945;44.472;-123.352;2023-04-20T06:47:46;101613.63;;;3.75;84.41
64551;BME280;50945;44.472;-123.352;2023-04-20T06:50:12;101626.28;;;3.75;84.89
64551;BME280;50945;44.472;-123.352;2023-04-20T06:52:39;101615.78;;;3.70;85.21
64551;BME280;50945;44.472;-123.352;2023-04-20T06:55:06;101618.59;;;3.69;85.63
64551;BME280;50945;44.472;-123.352;2023-04-20T06:57:32;101616.09;;;3.66;88.31
64551;BME280;50945;44.472;-123.352;2023-04-20T06:59:58;101614.28;;;3.66;85.33
64551;BME280;50945;44.472;-123.352;2023-04-20T07:02:25;101616.00;;;3.67;85.11
64551;BME280;50945;44.472;-123.352;2023-04-20T07:04:51;101627.56;;;3.69;85.16
64551;BME280;50945;44.472;-123.352;2023-04-20T07:07:20;101617.84;;;3.67;84.63
64551;BME280;50945;44.472;-123.352;2023-04-20T07:09:46;101623.66;;;3.60;85.37
64551;BME280;50945;44.472;-123.352;2023-04-20T07:12:12;101634.72;;;3.57;85.30
64551;BME280;50945;44.472;-123.352;2023-04-20T07:14:40;101633.31;;;3.52;85.47
64551;BME280;50945;44.472;-123.352;2023-04-20T07:17:06;101638.06;;;3.48;85.31
64551;BME280;50945;44.472;-123.352;2023-04-20T07:19:34;101640.25;;;3.43;85.39
64551;BME280;50945;44.472;-123.352;2023-04-20T07:22:00;101646.72;;;3.40;85.78
64551;BME280;50945;44.472;-123.352;2023-04-20T07:24:26;101650.59;;;3.36;85.71
64551;BME280;50945;44.472;-123.352;2023-04-20T07:26:53;101649.09;;;3.32;85.55
64551;BME280;50945;44.472;-123.352;2023-04-20T07:29:20;101649.31;;;3.29;85.43
64551;BME280;50945;44.472;-123.352;2023-04-20T07:31:46;101659.47;;;3.26;85.96
64551;BME280;50945;44.472;-123.352;2023-04-20T07:34:12;101661.50;;;3.22;85.79
64551;BME280;50945;44.472;-123.352;2023-04-20T07:36:39;101663.66;;;3.17;85.52
64551;BME280;50945;44.472;-123.352;2023-04-20T07:39:06;101664.94;;;3.11;85.84
64551;BME280;50945;44.472;-123.352;2023-04-20T07:41:32;101669.78;;;3.06;85.79
64551;BME280;50945;44.472;-123.352;2023-04-20T07:44:00;101664.88;;;2.98;86.01
64551;BME280;50945;44.472;-123.352;2023-04-20T07:46:26;101667.72;;;2.97;85.99
64551;BME280;50945;44.472;-123.352;2023-04-20T07:48:54;101668.69;;;2.96;86.02
64551;BME280;50945;44.472;-123.352;2023-04-20T07:51:20;101673.53;;;2.91;89.16
64551;BME280;50945;44.472;-123.352;2023-04-20T07:53:46;101664.97;;;2.84;86.94
64551;BME280;50945;44.472;-123.352;2023-04-20T07:56:12;101667.97;;;2.79;87.34
64551;BME280;50945;44.472;-123.352;2023-04-20T07:58:38;101671.63;;;2.78;86.89
64551;BME280;50945;44.472;-123.352;2023-04-20T08:01:05;101673.03;;;2.71;87.06
64551;BME280;50945;44.472;-123.352;2023-04-20T08:03:32;101671.97;;;2.59;87.55
64551;BME280;50945;44.472;-123.352;2023-04-20T08:05:59;101662.69;;;2.51;90.84
64551;BME280;50945;44.472;-123.352;2023-04-20T08:08:25;101663.72;;;2.48;89.00
64551;BME280;50945;44.472;-123.352;2023-04-20T08:10:51;101666.75;;;2.43;87.68
64551;BME280;50945;44.472;-123.352;2023-04-20T08:13:17;101664.53;;;2.36;88.23
64551;BME280;50945;44.472;-123.352;2023-04-20T08:15:44;101660.41;;;2.30;88.32
64551;BME280;50945;44.472;-123.352;2023-04-20T08:18:10;101658.88;;;2.26;87.96
64551;BME280;50945;44.472;-123.352;2023-04-20T08:20:36;101660.16;;;2.20;87.81
64551;BME280;50945;44.472;-123.352;2023-04-20T08:23:02;101662.28;;;2.15;88.49
64551;BME280;50945;44.472;-123.352;2023-04-20T08:25:28;101659.66;;;2.14;86.49
64551;BME280;50945;44.472;-123.352;2023-04-20T08:27:57;101664.41;;;2.10;88.11
64551;BME280;50945;44.472;-123.352;2023-04-20T08:30:23;101659.28;;;2.05;87.34
64551;BME280;50945;44.472;-123.352;2023-04-20T08:32:49;101653.31;;;2.00;88.82
64551;BME280;50945;44.472;-123.352;2023-04-20T08:35:15;101665.00;;;2.01;89.20
64551;BME280;50945;44.472;-123.352;2023-04-20T08:37:41;101659.38;;;2.04;88.38
64551;BME280;50945;44.472;-123.352;2023-04-20T08:40:08;101661.13;;;2.05;87.65
64551;BME280;50945;44.472;-123.352;2023-04-20T08:42:35;101661.22;;;2.03;87.52
64551;BME280;50945;44.472;-123.352;2023-04-20T08:45:01;101659.47;;;2.02;88.27
64551;BME280;50945;44.472;-123.352;2023-04-20T08:47:28;101657.75;;;2.01;88.00
64551;BME280;50945;44.472;-123.352;2023-04-20T08:49:55;101656.91;;;2.01;88.34
64551;BME280;50945;44.472;-123.352;2023-04-20T08:52:23;101660.34;;;2.03;89.00
64551;BME280;50945;44.472;-123.352;2023-04-20T08:54:49;101661.78;;;2.08;89.78
64551;BME280;50945;44.472;-123.352;2023-04-20T08:57:16;101661.28;;;2.16;88.03
64551;BME280;50945;44.472;-123.352;2023-04-20T08:59:42;101659.25;;;2.20;89.05
64551;BME280;50945;44.472;-123.352;2023-04-20T09:02:12;101652.72;;;2.24;88.43
64551;BME280;50945;44.472;-123.352;2023-04-20T09:04:39;101653.25;;;2.29;88.92
64551;BME280;50945;44.472;-123.352;2023-04-20T09:07:15;101653.84;;;2.34;89.00
64551;BME280;50945;44.472;-123.352;2023-04-20T09:09:55;101651.69;;;2.39;89.18
64551;BME280;50945;44.472;-123.352;2023-04-20T09:12:22;101650.34;;;2.46;88.49
64551;BME280;50945;44.472;-123.352;2023-04-20T09:14:50;101648.41;;;2.48;89.16
64551;BME280;50945;44.472;-123.352;2023-04-20T09:17:29;101651.00;;;2.50;88.05
64551;BME280;50945;44.472;-123.352;2023-04-20T09:19:55;101651.09;;;2.48;88.59
64551;BME280;50945;44.472;-123.352;2023-04-20T09:22:35;101650.81;;;2.53;88.63
64551;BME280;50945;44.472;-123.352;2023-04-20T09:25:14;101647.91;;;2.56;92.44
64551;BME280;50945;44.472;-123.352;2023-04-20T09:27:40;101644.13;;;2.59;90.06
64551;BME280;50945;44.472;-123.352;2023-04-20T09:30:07;101644.78;;;2.62;89.19
64551;BME280;50945;44.472;-123.352;2023-04-20T09:32:34;101639.09;;;2.67;88.72
64551;BME280;50945;44.472;-123.352;2023-04-20T09:35:00;101634.44;;;2.69;89.29
64551;BME280;50945;44.472;-123.352;2023-04-20T09:37:26;101630.56;;;2.73;88.77
64551;BME280;50945;44.472;-123.352;2023-04-20T09:39:58;101622.38;;;2.75;88.47
64551;BME280;50945;44.472;-123.352;2023-04-20T09:42:26;101633.16;;;2.75;88.58
64551;BME280;50945;44.472;-123.352;2023-04-20T09:44:53;101643.13;;;2.74;88.88
64551;BME280;50945;44.472;-123.352;2023-04-20T09:47:21;101635.31;;;2.70;88.41
64551;BME280;50945;44.472;-123.352;2023-04-20T09:49:47;101632.84;;;2.66;92.08
64551;BME280;50945;44.472;-123.352;2023-04-20T09:52:17;101638.34;;;2.65;89.44
64551;BME280;50945;44.472;-123.352;2023-04-20T09:54:44;101633.03;;;2.63;89.00
64551;BME280;50945;44.472;-123.352;2023-04-20T09:57:11;101640.38;;;2.61;88.92
64551;BME280;50945;44.472;-123.352;2023-04-20T09:59:42;101631.38;;;2.61;88.87
64551;BME280;50945;44.472;-123.352;2023-04-20T10:02:10;101625.88;;;2.62;89.23
64551;BME280;50945;44.472;-123.352;2023-04-20T10:04:37;101633.13;;;2.62;88.60
64551;BME280;50945;44.472;-123.352;2023-04-20T10:07:03;101627.94;;;2.59;89.18
64551;BME280;50945;44.472;-123.352;2023-04-20T10:09:31;101629.88;;;2.57;89.32
64551;BME280;50945;44.472;-123.352;2023-04-20T10:12:08;101628.13;;;2.56;89.40
64551;BME280;50945;44.472;-123.352;2023-04-20T10:14:34;101643.47;;;2.55;89.46
64551;BME280;50945;44.472;-123.352;2023-04-20T10:17:06;101647.25;;;2.53;89.14
64551;BME280;50945;44.472;-123.352;2023-04-20T10:22:08;101648.44;;;2.34;88.74
64551;BME280;50945;44.472;-123.352;2023-04-20T10:24:35;101641.41;;;2.32;89.28
64551;BME280;50945;44.472;-123.352;2023-04-20T10:27:19;101636.97;;;2.31;89.88
64551;BME280;50945;44.472;-123.352;2023-04-20T10:29:45;101632.84;;;2.25;90.05
64551;BME280;50945;44.472;-123.352;2023-04-20T10:34:48;101633.16;;;2.20;91.34
64551;BME280;50945;44.472;-123.352;2023-04-20T10:37:24;101633.16;;;2.20;90.32
64551;BME280;50945;44.472;-123.352;2023-04-20T10:39:50;101638.44;;;2.22;90.52
64551;BME280;50945;44.472;-123.352;2023-04-20T10:42:17;101646.53;;;2.22;90.50
64551;BME280;50945;44.472;-123.352;2023-04-20T10:44:50;101649.13;;;2.23;90.85
64551;BME280;50945;44.472;-123.352;2023-04-20T10:47:24;101643.53;;;2.26;90.67
64551;BME280;50945;44.472;-123.352;2023-04-20T10:49:51;101644.97;;;2.32;90.65
64551;BME280;50945;44.472;-123.352;2023-04-20T10:52:17;101646.72;;;2.33;90.15
64551;BME280;50945;44.472;-123.352;2023-04-20T10:54:43;101641.31;;;2.33;90.21
64551;BME280;50945;44.472;-123.352;2023-04-20T10:57:15;101640.34;;;2.34;89.95
64551;BME280;50945;44.472;-123.352;2023-04-20T10:59:41;101646.63;;;2.35;90.57
64551;BME280;50945;44.472;-123.352;2023-04-20T11:02:07;101641.22;;;2.35;89.84
64551;BME280;50945;44.472;-123.352;2023-04-20T11:04:35;101640.34;;;2.34;90.30
64551;BME280;50945;44.472;-123.352;2023-04-20T11:07:06;101640.44;;;2.33;90.23
64551;BME280;50945;44.472;-123.352;2023-04-20T11:09:33;101630.63;;;2.32;90.10
64551;BME280;50945;44.472;-123.352;2023-04-20T11:12:02;101630.72;;;2.30;90.08
64551;BME280;50945;44.472;-123.352;2023-04-20T11:14:30;101624.47;;;2.30;89.87
64551;BME280;50945;44.472;-123.352;2023-04-20T11:16:56;101622.81;;;2.27;89.95
64551;BME280;50945;44.472;-123.352;2023-04-20T11:19:28;101629.09;;;2.27;90.23
64551;BME280;50945;44.472;-123.352;2023-04-20T11:21:55;101631.13;;;2.24;90.21
64551;BME280;50945;44.472;-123.352;2023-04-20T11:24:24;101631.13;;;2.24;90.32
64551;BME280;50945;44.472;-123.352;2023-04-20T11:26:51;101628.63;;;2.21;90.01
64551;BME280;50945;44.472;-123.352;2023-04-20T11:32:01;101636.06;;;2.17;90.35
64551;BME280;50945;44.472;-123.352;2023-04-20T11:34:28;101635.88;;;2.20;90.34
64551;BME280;50945;44.472;-123.352;2023-04-20T11:36:55;101638.44;;;2.22;90.68
64551;BME280;50945;44.472;-123.352;2023-04-20T11:39:30;101625.75;;;2.24;92.78
64551;BME280;50945;44.472;-123.352;2023-04-20T11:41:57;101615.91;;;2.23;92.24
64551;BME280;50945;44.472;-123.352;2023-04-20T11:44:23;101623.03;;;2.24;93.99
64551;BME280;50945;44.472;-123.352;2023-04-20T11:46:50;101625.75;;;2.24;96.01
64551;BME280;50945;44.472;-123.352;2023-04-20T11:49:19;101624.84;;;2.23;92.83
64551;BME280;50945;44.472;-123.352;2023-04-20T11:51:46;101637.56;;;2.21;91.31
64551;BME280;50945;44.472;-123.352;2023-04-20T11:54:13;101637.75;;;2.18;91.50
64551;BME280;50945;44.472;-123.352;2023-04-20T11:56:40;101640.56;;;2.17;91.61
64551;BME280;50945;44.472;-123.352;2023-04-20T11:59:10;101626.41;;;2.13;91.23
64551;BME280;50945;44.472;-123.352;2023-04-20T12:01:36;101628.16;;;2.14;91.67
64551;BME280;50945;44.472;-123.352;2023-04-20T12:04:03;101636.91;;;2.18;90.97
64551;BME280;50945;44.472;-123.352;2023-04-20T12:06:29;101636.81;;;2.19;91.22
64551;BME280;50945;44.472;-123.352;2023-04-20T12:08:59;101628.53;;;2.22;91.12
64551;BME280;50945;44.472;-123.352;2023-04-20T12:11:25;101616.66;;;2.25;91.48
64551;BME280;50945;44.472;-123.352;2023-04-20T12:13:51;101611.94;;;2.28;91.68
64551;BME280;50945;44.472;-123.352;2023-04-20T12:16:20;101619.84;;;2.32;91.56
64551;BME280;50945;44.472;-123.352;2023-04-20T12:18:46;101635.84;;;2.35;90.95
64551;BME280;50945;44.472;-123.352;2023-04-20T12:21:13;101630.53;;;2.33;90.94
64551;BME280;50945;44.472;-123.352;2023-04-20T12:23:39;101624.16;;;2.34;90.75
64551;BME280;50945;44.472;-123.352;2023-04-20T12:26:05;101617.78;;;2.35;90.96
64551;BME280;50945;44.472;-123.352;2023-04-20T12:28:31;101622.00;;;2.39;90.78
64551;BME280;50945;44.472;-123.352;2023-04-20T12:30:58;101616.63;;;2.39;90.63
64551;BME280;50945;44.472;-123.352;2023-04-20T12:33:24;101604.78;;;2.42;90.51
64551;BME280;50945;44.472;-123.352;2023-04-20T12:35:50;101598.28;;;2.44;90.75
64551;BME280;50945;44.472;-123.352;2023-04-20T12:38:17;101602.63;;;2.47;91.11